Time;durP1;ratioP1;P1;durP2;ratioP2;P2;SDS_P1;SDS_P2;PMS_P1;PMS_P2;Temp;Humidity;BMP_temperature;BMP_pressure;BME280_temperature;BME280_humidity;BME280_pressure;Samples;Min_cycle;Max_cycle;Signal;HPM_P1;HPM_P2
2021/07/17 00:00:10;;;;;;;97.85;44.08;;;;;;;18.59;100.00;98205.41;5054441;28;20044;-80
2021/07/17 00:02:39;;;;;;;78.32;41.47;;;;;;;18.54;100.00;98189.22;5057159;28;20450;-81
2021/07/17 00:05:11;;;;;;;88.05;42.70;;;;;;;18.53;100.00;98182.13;5056023;28;20173;-79
2021/07/17 00:07:39;;;;;;;92.57;42.70;;;;;;;18.53;100.00;98198.56;5054149;28;20040;-78
2021/07/17 00:10:23;;;;;;;98.28;44.85;;;;;;;18.56;100.00;98205.31;5039113;28;20053;-82
2021/07/17 00:12:49;;;;;;;96.18;45.38;;;;;;;18.51;100.00;98197.34;5074207;28;20037;-80
2021/07/17 00:15:20;;;;;;;95.57;43.83;;;;;;;18.52;100.00;98198.94;5072528;28;20044;-80
2021/07/17 00:17:47;;;;;;;89.35;43.33;;;;;;;18.57;100.00;98206.91;5054459;28;20180;-79
2021/07/17 00:20:17;;;;;;;86.90;42.88;;;;;;;18.55;100.00;98203.72;5054084;28;20044;-78
2021/07/17 00:23:09;;;;;;;91.50;45.05;;;;;;;18.48;100.00;98195.28;5053446;28;20131;-80
2021/07/17 00:26:42;;;;;;;96.53;45.53;;;;;;;18.44;100.00;98197.13;4967702;28;20153;-83
2021/07/17 00:29:22;;;;;;;85.63;43.15;;;;;;;18.36;100.00;98184.38;4976475;28;20049;-84
2021/07/17 00:31:52;;;;;;;47.88;27.20;;;;;;;18.31;100.00;98192.88;4976144;28;20050;-81
2021/07/17 00:34:50;;;;;;;55.10;30.08;;;;;;;18.35;100.00;98196.50;5002158;28;20311;-83
2021/07/17 00:37:17;;;;;;;48.67;27.88;;;;;;;18.36;100.00;98201.63;4993057;28;20069;-81
2021/07/17 00:39:56;;;;;;;47.03;29.50;;;;;;;18.41;100.00;98206.06;4992554;28;20112;-83
2021/07/17 00:42:26;;;;;;;50.78;30.50;;;;;;;18.46;100.00;98208.53;4992315;28;20042;-82
2021/07/17 00:44:53;;;;;;;50.63;33.20;;;;;;;18.35;100.00;98193.78;4991749;28;20050;-79
2021/07/17 00:47:26;;;;;;;56.00;35.75;;;;;;;18.42;100.00;98204.91;4976213;28;20148;-81
2021/07/17 00:50:38;;;;;;;66.97;38.97;;;;;;;18.29;100.00;98185.00;4993009;28;20593;-83
2021/07/17 00:54:16;;;;;;;71.90;39.35;;;;;;;18.30;100.00;98194.81;4998183;28;20112;-80
2021/07/17 00:57:49;;;;;;;67.50;40.40;;;;;;;18.42;100.00;98202.97;5044805;28;20411;-82
2021/07/17 01:00:31;;;;;;;69.20;40.95;;;;;;;18.38;100.00;98198.53;5070785;28;20071;-82
2021/07/17 01:03:27;;;;;;;75.80;43.95;;;;;;;18.38;100.00;98198.53;5055884;28;20126;-84
2021/07/17 01:06:50;;;;;;;84.03;44.08;;;;;;;18.33;100.00;98180.41;4998883;28;20057;-80
2021/07/17 01:09:20;;;;;;;84.68;45.63;;;;;;;18.38;100.00;98198.53;5011999;28;20464;-81
2021/07/17 01:12:05;;;;;;;96.50;48.72;;;;;;;18.33;100.00;98185.88;4995953;28;20051;-83
2021/07/17 01:14:55;;;;;;;88.10;49.20;;;;;;;18.41;100.00;98212.34;5014286;28;20132;-84
2021/07/17 01:18:17;;;;;;;95.65;50.40;;;;;;;18.35;100.00;98194.53;5017456;28;20053;-82
2021/07/17 01:21:07;;;;;;;100.47;52.30;;;;;;;18.44;100.00;98197.94;5000936;28;20217;-81
2021/07/17 01:24:11;;;;;;;109.40;56.22;;;;;;;18.47;100.00;98207.44;5001919;28;20049;-83
2021/07/17 01:26:41;;;;;;;106.65;54.05;;;;;;;18.45;100.00;98210.47;5001885;28;20045;-83
2021/07/17 01:29:11;;;;;;;121.93;56.30;;;;;;;18.38;100.00;98180.13;5018878;28;20489;-84
2021/07/17 01:32:07;;;;;;;112.32;56.28;;;;;;;18.40;100.00;98190.78;5023227;28;20050;-82
2021/07/17 01:35:03;;;;;;;117.63;54.78;;;;;;;18.42;100.00;98178.31;5019996;28;20045;-81
2021/07/17 01:40:54;;;;;;;111.40;52.72;;;;;;;18.44;100.00;98170.50;5012569;28;20184;-83
2021/07/17 01:44:39;;;;;;;108.13;52.83;;;;;;;18.38;100.00;98176.59;4978023;28;20054;-82
2021/07/17 01:47:46;;;;;;;124.18;55.17;;;;;;;18.42;100.00;98170.06;4995725;28;20612;-82
2021/07/17 01:50:45;;;;;;;120.33;54.73;;;;;;;18.39;100.00;98175.47;5008095;28;20168;-81
2021/07/17 01:53:17;;;;;;;119.07;56.75;;;;;;;18.40;100.00;98175.09;5014120;28;20348;-82
2021/07/17 01:56:06;;;;;;;117.90;55.55;;;;;;;18.39;100.00;98162.56;4978563;28;20077;-82
2021/07/17 01:58:38;;;;;;;118.32;55.33;;;;;;;18.52;100.00;98182.50;4992178;28;20140;-80
2021/07/17 02:01:05;;;;;;;119.63;55.17;;;;;;;18.48;100.00;98179.66;4959828;28;20341;-80
2021/07/17 02:03:46;;;;;;;128.88;56.90;;;;;;;18.40;100.00;98177.84;4976042;28;20247;-83
2021/07/17 02:06:31;;;;;;;117.80;55.40;;;;;;;18.40;100.00;98163.34;4976182;28;20109;-82
2021/07/17 02:13:16;;;;;;;123.00;54.22;;;;;;;18.37;100.00;98169.53;4972496;28;20457;-83
2021/07/17 02:15:57;;;;;;;120.60;54.58;;;;;;;18.43;100.00;98177.13;4972104;28;20113;-81
2021/07/17 02:21:52;;;;;;;122.70;53.40;;;;;;;18.35;100.00;98156.16;4945286;29;20378;-81
2021/07/17 02:24:45;;;;;;;106.00;50.90;;;;;;;18.48;100.00;98190.63;4952911;28;20134;-81
2021/07/17 02:27:23;;;;;;;117.32;51.45;;;;;;;18.41;100.00;98176.69;5006814;28;20137;-83
2021/07/17 02:30:00;;;;;;;121.57;51.85;;;;;;;18.34;100.00;98159.28;5012222;28;20058;-81
2021/07/17 02:32:47;;;;;;;109.35;51.20;;;;;;;18.35;100.00;98138.94;4995389;28;20624;-83
2021/07/17 02:35:43;;;;;;;119.70;51.72;;;;;;;18.35;100.00;98153.44;5012959;28;20054;-80
2021/07/17 02:38:52;;;;;;;110.85;51.92;;;;;;;18.33;100.00;98153.00;5013300;28;20050;-82
2021/07/17 02:42:13;;;;;;;114.05;51.42;;;;;;;18.28;100.00;98146.97;5044349;28;20036;-80
2021/07/17 02:44:49;;;;;;;116.13;52.42;;;;;;;18.31;100.00;98146.28;5040558;28;20044;-80
2021/07/17 02:47:16;;;;;;;118.25;52.03;;;;;;;18.39;100.00;98159.00;5074017;28;20051;-79
2021/07/17 02:49:52;;;;;;;121.97;50.65;;;;;;;18.27;100.00;98148.13;5061095;28;20058;-82
2021/07/17 02:52:56;;;;;;;114.13;49.35;;;;;;;18.35;100.00;98167.13;5031552;28;20452;-83
2021/07/17 02:55:38;;;;;;;116.97;49.30;;;;;;;18.38;100.00;98165.63;5080097;28;20246;-83
2021/07/17 02:58:04;;;;;;;;;;;;;;;18.40;100.00;98166.88;5078521;28;20118;-80
2021/07/17 03:00:54;;;;;;;106.13;48.03;;;;;;;18.38;100.00;98154.66;5076762;28;19980;-83
2021/07/17 03:03:56;;;;;;;;;;;;;;;;;;;;;
2021/07/17 03:06:45;;;;;;;102.75;45.13;;;;;;;18.28;100.00;98161.47;5053182;28;20060;-83
2021/07/17 03:14:35;;;;;;;;;;;;;;;;;;;;;
2021/07/17 03:22:24;;;;;;;113.63;47.72;;;;;;;18.23;100.00;98148.03;4904076;29;20048;-84
2021/07/17 03:25:23;;;;;;;108.00;47.47;;;;;;;18.26;100.00;98160.22;4994074;28;20164;-82
2021/07/17 03:28:59;;;;;;;107.40;44.00;;;;;;;18.21;100.00;98144.84;5041049;28;20079;-81
2021/07/17 03:32:11;;;;;;;108.68;45.65;;;;;;;18.35;100.00;98169.88;5055773;28;20089;-85
2021/07/17 03:35:24;;;;;;;;;;;;;;;;;;;;;
2021/07/17 03:37:57;;;;;;;106.97;44.72;;;;;;;18.25;100.00;98159.44;5055202;28;20053;-82
2021/07/17 03:40:43;;;;;;;107.55;44.85;;;;;;;18.28;100.00;98166.16;5052479;28;20053;-84
2021/07/17 03:43:42;;;;;;;104.45;43.92;;;;;;;18.20;100.00;98148.72;5056198;28;20338;-84
2021/07/17 03:46:18;;;;;;;108.68;44.22;;;;;;;18.07;100.00;98141.72;5056731;28;20045;-80
2021/07/17 03:48:57;;;;;;;97.38;43.35;;;;;;;18.14;100.00;98139.19;5041631;28;20122;-82
2021/07/17 03:51:55;;;;;;;106.22;42.17;;;;;;;18.20;100.00;98151.47;5058662;28;20117;-84
2021/07/17 03:54:25;;;;;;;89.13;41.38;;;;;;;18.27;100.00;98154.38;5040659;28;20570;-84
2021/07/17 03:56:55;;;;;;;102.13;42.13;;;;;;;18.20;100.00;98146.00;5071660;28;20049;-84
2021/07/17 03:59:25;;;;;;;104.88;43.08;;;;;;;18.12;100.00;98135.97;5037669;28;20044;-85
2021/07/17 04:01:52;;;;;;;95.63;40.92;;;;;;;18.16;100.00;98153.34;5039518;28;20060;-81
2021/07/17 04:04:22;;;;;;;103.65;40.80;;;;;;;18.21;100.00;98155.00;5041838;28;20053;-84
2021/07/17 04:06:54;;;;;;;99.22;40.63;;;;;;;18.18;100.00;98144.75;5041801;28;20060;-85
2021/07/17 04:09:21;;;;;;;85.57;39.88;;;;;;;18.21;100.00;98169.50;5057900;28;20068;-81
2021/07/17 04:11:50;;;;;;;90.78;41.28;;;;;;;18.10;100.00;98157.47;5038037;28;20045;-82
2021/07/17 04:14:17;;;;;;;91.70;41.97;;;;;;;18.09;100.00;98147.69;5051066;28;20076;-83
2021/07/17 04:16:47;;;;;;;94.03;43.60;;;;;;;18.06;100.00;98170.28;5034490;28;20107;-82
2021/07/17 04:19:14;;;;;;;96.00;44.10;;;;;;;18.11;100.00;98171.97;5052413;28;20045;-84
2021/07/17 04:21:41;;;;;;;94.50;42.85;;;;;;;18.09;100.00;98171.53;5052767;28;20440;-82
2021/07/17 04:24:08;;;;;;;100.22;43.47;;;;;;;18.13;100.00;98169.66;5054523;28;20060;-83
2021/07/17 04:26:35;;;;;;;90.57;43.42;;;;;;;18.08;100.00;98161.72;5051913;28;20304;-83
2021/07/17 04:29:02;;;;;;;91.22;43.88;;;;;;;18.01;100.00;98159.59;5052954;28;20044;-84
2021/07/17 04:31:29;;;;;;;93.10;43.25;;;;;;;18.04;100.00;98156.91;5052896;28;20048;-82
2021/07/17 04:33:56;;;;;;;103.32;44.05;;;;;;;18.05;100.00;98168.69;5037640;28;20394;-83
2021/07/17 04:36:26;;;;;;;93.75;45.00;;;;;;;17.97;100.00;98153.19;5054484;28;20102;-84
2021/07/17 04:38:57;;;;;;;111.88;46.75;;;;;;;17.98;100.00;98160.28;5070449;28;20577;-85
2021/07/17 04:41:25;;;;;;;110.13;46.38;;;;;;;17.94;100.00;98151.97;5053775;28;20071;-84
2021/07/17 04:43:54;;;;;;;115.35;48.40;;;;;;;17.93;100.00;98166.81;5053721;28;20198;-87
2021/07/17 04:46:21;;;;;;;120.63;48.05;;;;;;;17.89;100.00;98165.09;5053631;28;20115;-83
2021/07/17 04:53:31;;;;;;;104.60;48.58;;;;;;;17.89;100.00;98167.84;4988731;28;20442;-83
2021/07/17 04:56:27;;;;;;;113.40;48.83;;;;;;;17.78;100.00;98162.06;4988132;28;20046;-86
2021/07/17 04:59:12;;;;;;;117.35;51.97;;;;;;;17.86;100.00;98165.81;4963723;28;20281;-85
2021/07/17 05:01:56;;;;;;;128.43;53.65;;;;;;;17.71;100.00;98142.69;5022090;28;20132;-82
2021/07/17 05:05:41;;;;;;;122.70;50.70;;;;;;;17.77;100.00;98163.22;5013406;28;20054;-85
2021/07/17 05:09:07;;;;;;;123.05;50.78;;;;;;;17.69;100.00;98149.69;4940016;28;20536;-86
2021/07/17 05:12:14;;;;;;;118.15;51.33;;;;;;;17.62;100.00;98142.06;4884318;29;20048;-86
2021/07/17 05:20:11;;;;;;;93.75;42.72;;;;;;;17.62;100.00;98144.00;4922319;23;20080;-84
2021/07/17 05:23:29;;;;;;;62.25;32.13;;;;;;;17.69;100.00;98174.31;5019358;28;20033;-83
2021/07/17 05:26:01;;;;;;;54.67;29.45;;;;;;;17.73;100.00;98173.28;5018017;28;20460;-82
2021/07/17 05:28:30;;;;;;;53.47;28.33;;;;;;;17.66;100.00;98161.31;5017335;28;20084;-81
2021/07/17 05:31:00;;;;;;;51.85;28.23;;;;;;;17.67;100.00;98165.66;5017645;28;20510;-82
2021/07/17 05:33:29;;;;;;;46.17;25.75;;;;;;;17.60;100.00;98158.03;5018041;28;20472;-84
2021/07/17 05:36:02;;;;;;;42.97;25.45;;;;;;;17.59;100.00;98167.41;5000787;28;20537;-83
2021/07/17 05:38:29;;;;;;;44.45;24.30;;;;;;;17.63;100.00;98178.44;5001747;28;20325;-83
2021/07/17 05:40:56;;;;;;;38.97;23.80;;;;;;;17.65;100.00;98176.97;5001439;28;20054;-83
2021/07/17 05:43:22;;;;;;;37.60;22.38;;;;;;;17.62;100.00;98176.88;5037029;28;20045;-86
2021/07/17 05:45:55;;;;;;;41.95;23.73;;;;;;;17.63;100.00;98179.25;5014148;28;20053;-84
2021/07/17 05:48:23;;;;;;;39.95;23.73;;;;;;;17.73;100.00;98181.50;5019093;28;20563;-84
2021/07/17 05:50:51;;;;;;;37.53;22.73;;;;;;;17.67;100.00;98180.16;5002839;28;20414;-85
2021/07/17 05:53:22;;;;;;;43.78;25.40;;;;;;;17.73;100.00;98186.19;5017006;28;20678;-83
2021/07/17 05:55:49;;;;;;;50.53;25.70;;;;;;;17.70;100.00;98173.19;5015610;28;20053;-84
2021/07/17 05:58:18;;;;;;;48.53;26.33;;;;;;;17.67;100.00;98165.66;4998537;28;20057;-84
2021/07/17 06:00:45;;;;;;;54.03;27.00;;;;;;;17.64;100.00;98161.69;5015004;28;20140;-84
2021/07/17 06:03:17;;;;;;;55.17;28.92;;;;;;;17.62;100.00;98163.16;5016018;28;20049;-84
2021/07/17 06:06:56;;;;;;;54.83;28.50;;;;;;;17.66;100.00;98167.59;5019122;28;20537;-84
2021/07/17 06:14:24;;;;;;;60.78;30.88;;;;;;;17.45;100.00;98151.31;4925644;28;20465;-83
2021/07/17 06:17:56;;;;;;;87.72;38.10;;;;;;;17.58;100.00;98178.69;4961285;28;20058;-83
2021/07/17 06:25:59;;;;;;;70.28;36.20;;;;;;;17.50;100.00;98180.38;4870664;29;20052;-84
2021/07/17 06:38:18;;;;;;;;;;;;;;;;;;;;;
2021/07/17 06:40:54;;;;;;;108.03;39.47;;;;;;;17.55;100.00;98196.59;5056055;23;20056;-82
2021/07/17 06:43:48;;;;;;;134.75;42.95;;;;;;;17.52;100.00;98205.50;5024926;28;20183;-83
2021/07/17 06:46:36;;;;;;;139.18;44.78;;;;;;;17.50;100.00;98196.81;5003042;28;20049;-82
2021/07/17 06:49:07;;;;;;;110.15;46.42;;;;;;;17.66;100.00;98216.09;5010483;28;20050;-81
2021/07/17 06:51:42;;;;;;;122.03;45.55;;;;;;;17.57;100.00;98212.69;5012356;28;20049;-82
2021/07/17 06:54:13;;;;;;;106.18;42.50;;;;;;;17.69;100.00;98221.69;5014750;28;20038;-81
2021/07/17 06:56:42;;;;;;;110.00;40.88;;;;;;;17.51;100.00;98203.09;5006342;28;20575;-82
2021/07/17 06:59:13;;;;;;;116.03;43.45;;;;;;;17.56;100.00;98202.88;5013495;28;20045;-80
2021/07/17 07:01:41;;;;;;;153.63;44.72;;;;;;;17.57;100.00;98215.44;5028494;28;20045;-84
2021/07/17 07:04:08;;;;;;;134.82;46.80;;;;;;;17.66;100.00;98227.03;5029871;28;20548;-82
2021/07/17 07:06:41;;;;;;;333.73;50.50;;;;;;;17.48;100.00;98212.78;5014587;28;20092;-79
2021/07/17 07:09:08;;;;;;;202.15;50.15;;;;;;;17.63;100.00;98219.50;5017513;28;20136;-84
2021/07/17 07:11:49;;;;;;;139.80;51.58;;;;;;;17.66;100.00;98216.09;4996487;28;20112;-79
2021/07/17 07:14:27;;;;;;;175.75;52.50;;;;;;;17.61;100.00;98221.81;5009251;28;20624;-83
2021/07/17 07:16:59;;;;;;;478.45;56.88;;;;;;;17.55;100.00;98217.72;4996915;28;20054;-81
2021/07/17 07:19:28;;;;;;;421.67;54.80;;;;;;;17.59;100.00;98229.56;5010881;28;20076;-83
2021/07/17 07:22:03;;;;;;;648.15;58.17;;;;;;;17.55;100.00;98226.72;5010854;28;20073;-79
2021/07/17 07:24:33;;;;;;;295.73;53.57;;;;;;;17.67;100.00;98228.66;5020455;28;20719;-82
2021/07/17 07:27:07;;;;;;;447.02;54.58;;;;;;;17.61;100.00;98235.50;5033814;28;20061;-80
2021/07/17 07:29:36;;;;;;;212.95;51.90;;;;;;;17.71;100.00;98224.06;5035073;28;20053;-79
2021/07/17 07:32:06;;;;;;;537.67;57.58;;;;;;;17.67;100.00;98229.44;5016721;28;20489;-80
2021/07/17 07:35:02;;;;;;;533.05;57.92;;;;;;;17.63;100.00;98225.00;5025087;28;20042;-85
2021/07/17 07:38:43;;;;;;;539.38;54.95;;;;;;;17.60;100.00;98231.19;4989449;28;20575;-84
2021/07/17 07:41:26;;;;;;;239.65;53.47;;;;;;;17.55;100.00;98210.28;4960763;28;20055;-83
2021/07/17 07:47:57;;;;;;;296.52;51.25;;;;;;;17.62;100.00;98215.19;4904490;29;20473;-84
2021/07/17 07:50:58;;;;;;;210.20;51.13;;;;;;;17.70;100.00;98223.28;4960079;28;20090;-84
2021/07/17 07:54:05;;;;;;;429.08;54.97;;;;;;;17.72;100.00;98236.63;4954351;29;20706;-83
2021/07/17 07:57:03;;;;;;;380.05;52.53;;;;;;;17.73;100.00;98230.00;4954189;29;20075;-85
2021/07/17 07:59:48;;;;;;;392.63;44.70;;;;;;;17.53;100.00;98212.59;4940421;29;20047;-83
2021/07/17 08:02:41;;;;;;;280.58;46.60;;;;;;;17.59;100.00;98215.88;4938097;29;20054;-85
2021/07/17 08:05:48;;;;;;;195.88;41.08;;;;;;;17.70;100.00;98236.19;4955179;29;20139;-84
2021/07/17 08:08:48;;;;;;;89.28;35.10;;;;;;;17.66;100.00;98224.31;4951863;29;20051;-84
2021/07/17 08:11:44;;;;;;;56.35;29.02;;;;;;;17.67;100.00;98221.22;4938151;29;20063;-85
2021/07/17 08:14:38;;;;;;;52.92;26.80;;;;;;;17.75;100.00;98233.19;5058793;23;20119;-84
2021/07/17 08:17:19;;;;;;;39.92;21.67;;;;;;;17.71;100.00;98227.59;5055222;28;20044;-84
2021/07/17 08:19:55;;;;;;;34.95;20.00;;;;;;;17.65;100.00;98212.56;5033676;28;20049;-84
2021/07/17 08:22:30;;;;;;;27.40;16.77;;;;;;;17.68;100.00;98219.28;5033357;28;20049;-85
2021/07/17 08:25:09;;;;;;;27.05;14.48;;;;;;;17.70;100.00;98219.75;5048738;28;20045;-85
2021/07/17 08:27:37;;;;;;;28.65;15.43;;;;;;;17.82;100.00;98236.13;5022462;28;20497;-86
2021/07/17 08:30:11;;;;;;;59.95;21.73;;;;;;;17.77;100.00;98239.91;5038848;28;20044;-85
2021/07/17 08:33:01;;;;;;;145.38;27.92;;;;;;;17.63;100.00;98222.25;5059577;28;20040;-85
2021/07/17 08:35:29;;;;;;;155.73;26.25;;;;;;;17.65;100.00;98237.22;5038271;28;20236;-84
2021/07/17 08:38:00;;;;;;;46.80;23.55;;;;;;;17.61;100.00;98238.22;5056766;28;20071;-86
2021/07/17 08:40:33;;;;;;;40.80;22.85;;;;;;;17.70;100.00;98219.75;5041124;28;20040;-85
2021/07/17 08:43:06;;;;;;;32.83;19.67;;;;;;;17.76;100.00;98229.28;5028407;28;20209;-84
2021/07/17 08:45:54;;;;;;;34.10;20.08;;;;;;;17.77;100.00;98230.91;5034495;28;20051;-85
2021/07/17 08:48:35;;;;;;;49.75;22.45;;;;;;;17.68;100.00;98235.72;5034224;28;20064;-85
2021/07/17 08:55:55;;;;;;;102.43;28.08;;;;;;;17.57;100.00;98227.19;4954604;28;20057;-85
2021/07/17 08:59:05;;;;;;;58.15;23.27;;;;;;;17.65;100.00;98236.41;4954514;28;20042;-83
2021/07/17 09:02:21;;;;;;;38.58;23.40;;;;;;;17.87;100.00;98246.84;4979017;28;20041;-82
2021/07/17 09:05:12;;;;;;;83.68;26.02;;;;;;;17.75;100.00;98238.66;4962178;28;20058;-81
2021/07/17 09:07:42;;;;;;;207.68;27.52;;;;;;;17.82;100.00;98241.59;4966560;28;20051;-82
2021/07/17 09:10:33;;;;;;;264.30;33.53;;;;;;;17.60;100.00;98234.69;4979621;28;20055;-83
2021/07/17 09:13:10;;;;;;;339.45;37.42;;;;;;;17.57;100.00;98245.56;5008031;28;20110;-84
2021/07/17 09:16:00;;;;;;;285.45;41.83;;;;;;;17.45;100.00;98238.94;4985833;28;20066;-82
2021/07/17 09:18:55;;;;;;;152.18;38.70;;;;;;;17.44;100.00;98242.81;4959032;28;20047;-84
2021/07/17 09:21:26;;;;;;;155.30;38.65;;;;;;;17.59;100.00;98260.50;4965828;28;20065;-84
2021/07/17 09:23:56;;;;;;;99.72;38.80;;;;;;;17.69;100.00;98264.69;4956808;28;20051;-81
2021/07/17 09:26:28;;;;;;;112.80;35.65;;;;;;;17.68;100.00;98261.16;4978194;28;20051;-81
2021/07/17 09:29:39;;;;;;;103.43;33.67;;;;;;;17.65;100.00;98264.59;4960802;28;20046;-85
2021/07/17 09:32:15;;;;;;;376.17;43.78;;;;;;;17.48;100.00;98247.59;4949540;28;20118;-81
2021/07/17 09:34:42;;;;;;;185.85;43.15;;;;;;;17.63;100.00;98266.06;4989525;28;20038;-80
2021/07/17 09:37:10;;;;;;;228.57;44.05;;;;;;;17.76;100.00;98273.91;4987223;28;20051;-79
2021/07/17 09:39:45;;;;;;;719.78;58.85;;;;;;;17.73;100.00;98257.41;4974822;28;20098;-79
2021/07/17 09:42:13;;;;;;;;;;;;;;;17.73;100.00;98268.34;4989051;28;20046;-81
2021/07/17 09:44:42;;;;;;;588.75;50.35;;;;;;;17.72;100.00;98261.25;4977538;28;20404;-80
2021/07/17 09:47:16;;;;;;;258.20;42.45;;;;;;;17.77;100.00;98256.34;4993488;28;20039;-81
2021/07/17 09:49:43;;;;;;;237.07;44.50;;;;;;;17.79;100.00;98259.53;4993941;28;20309;-79
2021/07/17 09:52:16;;;;;;;130.75;39.03;;;;;;;17.79;100.00;98256.78;4995124;28;20035;-82
2021/07/17 09:55:02;;;;;;;109.07;36.03;;;;;;;17.87;100.00;98261.34;4969782;28;20039;-81
2021/07/17 09:57:38;;;;;;;82.05;35.13;;;;;;;17.87;100.00;98260.53;4979709;28;20586;-80
2021/07/17 10:00:19;;;;;;;75.00;33.13;;;;;;;17.93;100.00;98259.97;4978916;28;20034;-80
2021/07/17 10:02:53;;;;;;;60.03;31.08;;;;;;;18.01;100.00;98263.72;4964344;28;20050;-80
2021/07/17 10:05:37;;;;;;;62.10;30.15;;;;;;;18.04;100.00;98262.97;4978807;28;20050;-80
2021/07/17 10:08:13;;;;;;;57.65;29.58;;;;;;;18.02;100.00;98268.81;4976203;28;20076;-80
2021/07/17 10:10:44;;;;;;;64.25;28.58;;;;;;;18.03;100.00;98259.47;4991076;28;20056;-77
2021/07/17 10:13:13;;;;;;;52.33;27.77;;;;;;;18.05;100.00;98254.44;5011858;28;20042;-81
2021/07/17 10:15:40;;;;;;;58.40;27.40;;;;;;;18.14;100.00;98250.75;4974525;28;20042;-82
2021/07/17 10:18:26;;;;;;;58.13;28.90;;;;;;;18.18;100.00;98249.69;4998787;28;20580;-81
2021/07/17 10:20:57;;;;;;;57.83;28.00;;;;;;;18.22;100.00;98245.09;5022145;28;20050;-78
2021/07/17 10:23:24;;;;;;;49.45;26.48;;;;;;;18.29;100.00;98260.97;5002103;28;20053;-82
2021/07/17 10:25:51;;;;;;;41.42;23.75;;;;;;;18.28;100.00;98249.19;4984736;28;20601;-80
2021/07/17 10:28:18;;;;;;;45.60;25.40;;;;;;;18.28;100.00;98240.16;4977303;28;20081;-79
2021/07/17 10:30:46;;;;;;;47.03;23.77;;;;;;;18.34;100.00;98249.75;4973082;28;20050;-80
2021/07/17 10:33:19;;;;;;;39.10;20.63;;;;;;;18.25;100.00;98236.19;4982536;28;20050;-83
2021/07/17 10:35:52;;;;;;;37.85;22.00;;;;;;;18.34;100.00;98245.06;4941308;28;20051;-82
2021/07/17 10:38:25;;;;;;;38.38;21.38;;;;;;;18.22;100.00;98216.91;4963551;28;20574;-83
2021/07/17 10:41:01;;;;;;;36.22;20.52;;;;;;;18.50;100.00;98245.94;4982046;28;20055;-83
2021/07/17 10:43:52;;;;;;;43.08;21.25;;;;;;;18.56;100.00;98230.78;4971216;28;20759;-85
2021/07/17 10:46:31;;;;;;;39.85;19.73;;;;;;;18.58;100.00;98247.69;5007617;28;20046;-83
2021/07/17 10:49:03;;;;;;;42.10;20.80;;;;;;;18.50;100.00;98236.91;4979259;28;20513;-82
2021/07/17 10:51:35;;;;;;;35.65;20.42;;;;;;;18.50;100.00;98223.19;4969668;28;20050;-82
2021/07/17 10:54:12;;;;;;;39.90;21.70;;;;;;;18.45;100.00;98232.41;4959456;28;20108;-81
2021/07/17 10:56:45;;;;;;;40.45;22.17;;;;;;;18.39;100.00;98239.31;4975247;28;20082;-82
2021/07/17 10:59:14;;;;;;;47.13;24.00;;;;;;;18.51;100.00;98243.97;4972645;28;20049;-79
2021/07/17 11:04:38;;;;;;;;;;;;;;;18.49;100.00;98233.34;4996211;28;20049;-80
2021/07/17 11:07:17;;;;;;;43.78;23.33;;;;;;;18.63;100.00;98243.91;4959195;28;20020;-81
2021/07/17 11:10:00;;;;;;;44.22;23.58;;;;;;;18.71;100.00;98245.69;4990967;28;20122;-79
2021/07/17 11:12:34;;;;;;;43.25;22.67;;;;;;;18.51;100.00;98236.53;5001589;28;20050;-82
2021/07/17 11:15:05;;;;;;;;;;;;;;;18.57;100.00;98248.84;4995288;28;20050;-80
2021/07/17 11:17:51;;;;;;;53.40;24.05;;;;;;;18.63;100.00;98239.19;4981564;28;19921;-81
2021/07/17 11:20:32;;;;;;;;;;;;;;;18.75;100.00;98248.50;4959806;28;20307;-82
2021/07/17 11:23:16;;;;;;;39.80;22.58;;;;;;;18.78;100.00;98218.41;4971429;28;19933;-81
2021/07/17 11:26:00;;;;;;;51.92;24.35;;;;;;;18.93;100.00;98241.50;4998080;28;20050;-81
2021/07/17 11:28:50;;;;;;;46.47;24.92;;;;;;;18.86;100.00;98235.84;5009018;28;20583;-83
2021/07/17 11:31:55;;;;;;;62.58;26.88;;;;;;;18.79;100.00;98222.75;5014137;28;20050;-82
2021/07/17 11:34:23;;;;;;;56.73;26.77;;;;;;;18.98;100.00;98233.81;4995712;28;20049;-79
2021/07/17 11:36:57;;;;;;;52.78;26.77;;;;;;;18.94;100.00;98230.19;4989666;28;20049;-80
2021/07/17 11:39:34;;;;;;;50.33;26.08;;;;;;;18.92;100.00;98205.03;4962352;28;20054;-84
2021/07/17 11:42:04;;;;;;;45.97;25.15;;;;;;;18.97;100.00;98213.00;4995405;28;20046;-81
2021/07/17 11:44:33;;;;;;;51.35;26.90;;;;;;;18.94;100.00;98210.19;5010962;28;20045;-83
2021/07/17 11:47:05;;;;;;;52.40;24.45;;;;;;;18.88;100.00;98206.91;5012547;28;20049;-81
2021/07/17 11:49:33;;;;;;;50.65;26.10;;;;;;;18.89;100.00;98219.47;4993123;28;20145;-81
2021/07/17 11:52:06;;;;;;;61.03;26.55;;;;;;;18.71;100.00;98210.03;4995742;28;20054;-81
2021/07/17 11:54:42;;;;;;;61.97;29.05;;;;;;;18.77;100.00;98207.78;5011763;28;20084;-82
2021/07/17 11:57:33;;;;;;;79.05;30.92;;;;;;;18.80;100.00;98212.56;4995400;28;20107;-80
2021/07/17 12:00:11;;;;;;;75.97;31.17;;;;;;;18.90;100.00;98221.06;4966719;28;20054;-80
2021/07/17 12:02:56;;;;;;;61.38;30.33;;;;;;;19.01;100.00;98226.81;4960648;28;20170;-83
2021/07/17 12:05:26;;;;;;;72.05;31.45;;;;;;;18.91;100.00;98216.38;4958872;28;20335;-81
2021/07/17 12:07:54;;;;;;;71.03;29.83;;;;;;;18.90;100.00;98220.25;4961183;28;20629;-80
2021/07/17 12:10:25;;;;;;;53.50;26.77;;;;;;;18.86;100.00;98228.44;5005276;28;20124;-83
2021/07/17 12:12:57;;;;;;;55.53;28.08;;;;;;;18.81;100.00;98214.97;5000090;28;20049;-80
2021/07/17 12:15:34;;;;;;;59.00;28.35;;;;;;;18.87;100.00;98218.22;4979603;28;20061;-81
2021/07/17 12:18:15;;;;;;;68.20;28.77;;;;;;;18.90;100.00;98223.00;4978607;28;20057;-81
2021/07/17 12:20:45;;;;;;;54.90;27.85;;;;;;;18.93;100.00;98206.66;4994369;28;20289;-80
2021/07/17 12:23:29;;;;;;;51.90;27.73;;;;;;;18.96;100.00;98208.69;4987183;28;20050;-83
2021/07/17 12:26:04;;;;;;;54.50;25.38;;;;;;;18.98;100.00;98202.81;4978138;28;20047;-80
2021/07/17 12:28:36;;;;;;;47.00;24.80;;;;;;;19.03;100.00;98213.53;4972680;28;20058;-81
2021/07/17 12:31:10;;;;;;;50.70;24.70;;;;;;;19.10;100.00;98213.69;4976613;28;20147;-79
2021/07/17 12:33:46;;;;;;;44.28;21.35;;;;;;;19.06;100.00;98201.84;4998648;28;20236;-79
2021/07/17 12:36:15;;;;;;;40.13;20.38;;;;;;;19.14;100.00;98214.59;4996261;28;20054;-78
2021/07/17 12:38:50;;;;;;;37.97;18.90;;;;;;;19.16;100.00;98217.75;4995160;28;20575;-81
2021/07/17 12:41:30;;;;;;;39.92;19.85;;;;;;;19.04;100.00;98210.44;5016126;28;20053;-83
2021/07/17 12:44:30;;;;;;;36.40;19.15;;;;;;;19.06;100.00;98210.06;5005016;28;20049;-81
2021/07/17 12:47:03;;;;;;;37.33;18.52;;;;;;;18.96;100.00;98205.94;5006199;28;20054;-82
2021/07/17 12:49:30;;;;;;;35.45;18.33;;;;;;;18.91;100.00;98200.72;5017565;28;20255;-81
2021/07/17 12:51:56;;;;;;;33.95;18.23;;;;;;;18.98;100.00;98202.81;4995501;28;20101;-79
2021/07/17 12:54:25;;;;;;;36.38;17.75;;;;;;;19.07;100.00;98214.44;4976507;28;20042;-82
2021/07/17 12:56:56;;;;;;;35.47;18.42;;;;;;;19.11;100.00;98205.13;5005830;28;20231;-82
2021/07/17 12:59:27;;;;;;;30.20;15.23;;;;;;;19.12;100.00;98211.41;4996536;28;20109;-80
2021/07/17 13:01:59;;;;;;;24.02;13.35;;;;;;;19.23;100.00;98210.50;4994137;28;20046;-78
2021/07/17 13:04:32;;;;;;;19.38;11.20;;;;;;;19.33;100.00;98211.88;4958148;28;20051;-79
2021/07/17 13:07:07;;;;;;;16.95;10.43;;;;;;;19.30;100.00;98205.16;4976889;28;20046;-79
2021/07/17 13:09:39;;;;;;;19.30;9.32;;;;;;;19.30;100.00;98209.88;5000139;28;20457;-79
2021/07/17 13:12:11;;;;;;;19.60;9.55;;;;;;;19.28;100.00;98207.47;5013769;28;20042;-80
2021/07/17 13:14:40;;;;;;;15.85;8.05;;;;;;;19.18;100.00;98199.78;4995331;28;20049;-76